createdAt,value
2019-04-30T00:00:01.602Z,11.77
2019-04-30T00:02:40.067Z,11.74
2019-04-30T00:05:10.076Z,11.73
2019-04-30T00:07:39.436Z,11.73
2019-04-30T00:10:09.611Z,11.85
2019-04-30T00:12:39.679Z,11.86
2019-04-30T00:15:11.089Z,11.73
2019-04-30T00:17:41.499Z,11.62
2019-04-30T00:20:11.461Z,11.67
2019-04-30T00:22:47.042Z,11.69
2019-04-30T00:25:13.039Z,11.75
2019-04-30T00:27:42.709Z,11.75
2019-04-30T00:30:12.723Z,11.84
2019-04-30T00:32:43.660Z,11.73
2019-04-30T00:35:16.171Z,11.74
2019-04-30T00:37:51.714Z,11.63
2019-04-30T00:40:17.362Z,11.59
2019-04-30T00:42:47.062Z,11.62
2019-04-30T00:45:17.145Z,11.63
2019-04-30T00:47:48.370Z,11.65
2019-04-30T00:50:18.614Z,11.75
2019-04-30T00:52:48.492Z,11.73
2019-04-30T00:55:18.171Z,11.74
2019-04-30T00:57:47.911Z,11.79
2019-04-30T01:00:25.237Z,11.74
2019-04-30T01:03:00.849Z,11.67
2019-04-30T01:05:28.674Z,11.84
2019-04-30T01:07:58.618Z,11.83
2019-04-30T01:10:28.501Z,11.80
2019-04-30T01:12:59.780Z,11.70
2019-04-30T01:15:30.098Z,11.68
2019-04-30T01:17:59.877Z,11.64
2019-04-30T01:20:32.717Z,11.60
2019-04-30T01:23:03.185Z,11.60
2019-04-30T01:25:33.700Z,11.52
2019-04-30T01:28:03.917Z,11.51
2019-04-30T01:30:33.756Z,11.53
2019-04-30T01:33:03.550Z,11.49
2019-04-30T01:35:33.316Z,11.53
2019-04-30T01:38:04.196Z,11.53
2019-04-30T01:40:35.701Z,11.52
2019-04-30T01:43:05.567Z,11.58
2019-04-30T01:45:35.351Z,11.58
2019-04-30T01:48:08.693Z,11.60
2019-04-30T01:50:38.725Z,11.62
2019-04-30T01:53:11.431Z,11.52
2019-04-30T01:55:56.154Z,11.58
2019-04-30T01:58:30.024Z,11.53
2019-04-30T02:01:01.540Z,11.57
2019-04-30T02:03:31.309Z,11.50
2019-04-30T02:06:01.163Z,11.45
2019-04-30T02:08:30.856Z,11.43
2019-04-30T02:11:00.598Z,11.44
2019-04-30T02:13:34.260Z,11.46
2019-04-30T02:16:01.946Z,11.42
2019-04-30T02:18:31.738Z,11.46
2019-04-30T02:21:01.576Z,11.56
2019-04-30T02:23:31.493Z,11.47
2019-04-30T02:26:01.480Z,11.47
2019-04-30T02:28:31.252Z,11.45
2019-04-30T02:31:01.088Z,11.43
2019-04-30T02:33:32.561Z,11.50
2019-04-30T02:36:04.134Z,11.50
2019-04-30T02:38:35.416Z,11.44
2019-04-30T02:41:05.616Z,11.49
2019-04-30T02:43:36.517Z,11.39
2019-04-30T02:46:09.701Z,11.33
2019-04-30T02:48:43.197Z,11.33
2019-04-30T02:51:15.363Z,11.28
2019-04-30T02:53:52.279Z,11.28
2019-04-30T02:56:26.614Z,11.28
2019-04-30T02:58:55.457Z,11.36
2019-04-30T03:01:25.223Z,11.33
2019-04-30T03:03:54.929Z,11.31
2019-04-30T03:06:24.810Z,11.33
2019-04-30T03:08:54.508Z,11.29
2019-04-30T03:11:24.184Z,11.26
2019-04-30T03:13:53.930Z,11.23
2019-04-30T03:16:30.335Z,11.22
2019-04-30T03:18:59.589Z,11.22
2019-04-30T03:21:47.243Z,11.28
2019-04-30T03:24:16.887Z,11.18
2019-04-30T03:26:49.653Z,11.22
2019-04-30T03:29:23.347Z,11.07
2019-04-30T03:31:52.360Z,11.01
2019-04-30T03:34:25.696Z,11.04
2019-04-30T03:36:52.554Z,11.06
2019-04-30T03:39:22.260Z,11.13
2019-04-30T03:41:51.966Z,11.08
2019-04-30T03:44:25.774Z,11.05
2019-04-30T03:46:53.024Z,10.97
2019-04-30T03:49:22.695Z,10.86
2019-04-30T03:51:52.450Z,10.88
2019-04-30T03:54:22.314Z,10.88
2019-04-30T03:56:53.796Z,10.97
2019-04-30T03:59:23.422Z,10.92
2019-04-30T04:02:13.153Z,10.89
2019-04-30T04:04:52.711Z,10.78
2019-04-30T04:07:24.817Z,10.78
2019-04-30T04:09:54.282Z,10.84
2019-04-30T04:12:24.990Z,10.87
2019-04-30T04:14:54.826Z,10.92
2019-04-30T04:17:24.695Z,10.81
2019-04-30T04:19:54.396Z,10.75
2019-04-30T04:22:24.220Z,10.79
2019-04-30T04:24:54.037Z,10.79
2019-04-30T04:27:23.847Z,10.77
2019-04-30T04:29:53.520Z,10.73
2019-04-30T04:32:24.232Z,10.81
2019-04-30T04:34:54.727Z,10.84
2019-04-30T04:37:24.585Z,10.79
2019-04-30T04:39:54.436Z,10.78
2019-04-30T04:42:24.202Z,10.71
2019-04-30T04:44:54.062Z,10.76
2019-04-30T04:47:23.830Z,10.77
2019-04-30T04:49:54.108Z,10.77
2019-04-30T04:52:24.093Z,10.82
2019-04-30T04:54:53.960Z,10.85
2019-04-30T04:57:23.627Z,10.82
2019-04-30T04:59:54.398Z,10.88
2019-04-30T05:02:32.103Z,11.04
2019-04-30T05:05:00.181Z,11.04
2019-04-30T05:07:29.812Z,11.10
2019-04-30T05:10:00.964Z,10.96
2019-04-30T05:12:30.893Z,11.02
2019-04-30T05:15:00.644Z,11.09
2019-04-30T05:17:32.088Z,11.13
2019-04-30T05:20:02.242Z,11.13
2019-04-30T05:22:31.985Z,11.15
2019-04-30T05:25:01.757Z,11.21
2019-04-30T05:27:31.472Z,11.45
2019-04-30T05:30:01.501Z,11.50
2019-04-30T05:32:31.135Z,11.43
2019-04-30T05:35:00.855Z,11.57
2019-04-30T05:37:30.637Z,11.82
2019-04-30T05:40:01.026Z,12.01
2019-04-30T05:42:30.891Z,12.03
2019-04-30T05:45:00.613Z,11.88
2019-04-30T05:47:30.286Z,11.71
2019-04-30T05:50:00.196Z,11.48
2019-04-30T05:52:29.924Z,11.62
2019-04-30T05:55:00.134Z,11.67
2019-04-30T05:57:30.117Z,11.80
2019-04-30T05:59:59.863Z,11.82
2019-04-30T06:02:33.747Z,11.78
2019-04-30T06:05:01.268Z,11.88
2019-04-30T06:07:30.893Z,11.90
2019-04-30T06:10:09.442Z,11.86
2019-04-30T06:12:49.340Z,11.82
2019-04-30T06:15:29.085Z,11.91
2019-04-30T06:18:04.014Z,11.98
2019-04-30T06:20:30.691Z,11.82
2019-04-30T06:23:01.090Z,11.82
2019-04-30T06:25:41.292Z,11.67
2019-04-30T06:28:03.324Z,11.80
2019-04-30T06:30:33.643Z,11.87
2019-04-30T06:33:03.735Z,12.00
2019-04-30T06:35:33.630Z,11.89
2019-04-30T06:38:03.395Z,11.97
2019-04-30T06:40:33.377Z,11.98
2019-04-30T06:43:03.157Z,11.85
2019-04-30T06:45:35.082Z,12.03
2019-04-30T06:48:06.448Z,12.30
2019-04-30T06:50:36.307Z,12.35
2019-04-30T06:53:06.115Z,12.32
2019-04-30T06:55:35.977Z,12.15
2019-04-30T06:58:14.554Z,12.18
2019-04-30T07:00:40.062Z,12.33
2019-04-30T07:03:10.456Z,12.39
2019-04-30T07:05:40.217Z,12.67
2019-04-30T07:08:37.301Z,12.37
2019-04-30T07:11:20.682Z,12.31
2019-04-30T07:13:52.215Z,12.38
2019-04-30T07:16:22.308Z,12.44
2019-04-30T07:18:52.033Z,12.65
2019-04-30T07:21:21.753Z,12.66
2019-04-30T07:23:51.780Z,12.89
2019-04-30T07:26:24.497Z,12.99
2019-04-30T07:28:55.343Z,12.66
2019-04-30T07:31:24.697Z,12.67
2019-04-30T07:33:54.424Z,12.83
2019-04-30T07:36:42.235Z,12.86
2019-04-30T07:38:56.835Z,12.76
2019-04-30T07:41:30.818Z,12.59
2019-04-30T07:43:59.333Z,12.49
2019-04-30T07:46:29.976Z,12.56
2019-04-30T07:49:00.182Z,12.91
2019-04-30T07:51:32.135Z,13.27
2019-04-30T07:54:01.859Z,13.72
2019-04-30T07:56:37.363Z,13.95
2019-04-30T07:59:03.107Z,13.96
2019-04-30T08:01:32.898Z,13.53
2019-04-30T08:04:08.807Z,12.93
2019-04-30T08:06:39.696Z,13.02
2019-04-30T08:09:11.123Z,12.98
2019-04-30T08:11:43.532Z,13.22
2019-04-30T08:14:12.481Z,13.21
2019-04-30T08:16:42.231Z,13.39
2019-04-30T08:19:12.058Z,13.62
2019-04-30T08:21:41.705Z,13.44
2019-04-30T08:24:11.691Z,13.44
2019-04-30T08:26:41.481Z,13.34
2019-04-30T08:29:11.302Z,13.56
2019-04-30T08:31:41.050Z,13.78
2019-04-30T08:34:11.031Z,14.00
2019-04-30T08:36:40.854Z,13.97
2019-04-30T08:39:10.792Z,13.71
2019-04-30T08:41:40.574Z,13.70
2019-04-30T08:44:10.434Z,13.61
2019-04-30T08:46:40.361Z,13.65
2019-04-30T08:49:10.348Z,13.71
2019-04-30T08:51:40.664Z,13.71
2019-04-30T08:54:10.730Z,13.80
2019-04-30T08:56:40.479Z,14.04
2019-04-30T08:59:11.242Z,14.18
2019-04-30T09:01:41.205Z,13.88
2019-04-30T09:04:11.006Z,14.07
2019-04-30T09:06:40.823Z,14.28
2019-04-30T09:09:12.216Z,14.07
2019-04-30T09:11:51.755Z,14.19
2019-04-30T09:14:13.492Z,14.32
2019-04-30T09:16:43.251Z,14.33
2019-04-30T09:19:13.130Z,14.58
2019-04-30T09:21:42.858Z,14.44
2019-04-30T09:24:12.710Z,14.43
2019-04-30T09:26:42.458Z,14.71
2019-04-30T09:29:12.201Z,14.86
2019-04-30T09:31:41.878Z,14.95
2019-04-30T09:34:17.522Z,14.82
2019-04-30T09:36:43.169Z,14.91
2019-04-30T09:39:12.987Z,14.84
2019-04-30T09:41:43.056Z,14.81
2019-04-30T09:44:12.882Z,14.92
2019-04-30T09:46:42.628Z,14.68
2019-04-30T09:49:12.357Z,14.83
2019-04-30T09:51:42.452Z,14.93
2019-04-30T09:54:13.173Z,15.15
2019-04-30T09:56:43.374Z,14.93
2019-04-30T09:59:13.015Z,14.71
2019-04-30T10:01:43.197Z,14.87
2019-04-30T10:04:13.523Z,15.07
2019-04-30T10:06:43.581Z,15.47
2019-04-30T10:09:15.852Z,15.73
2019-04-30T10:11:50.210Z,15.71
2019-04-30T10:14:20.165Z,15.51
2019-04-30T10:17:09.540Z,15.31
2019-04-30T10:19:39.430Z,15.10
2019-04-30T10:22:09.443Z,15.42
2019-04-30T10:24:39.612Z,15.64
2019-04-30T10:27:13.049Z,15.85
2019-04-30T10:29:41.913Z,15.78
2019-04-30T10:32:11.906Z,15.58
2019-04-30T10:34:41.700Z,15.79
2019-04-30T10:37:12.308Z,16.04
2019-04-30T10:39:42.258Z,15.68
2019-04-30T10:42:12.143Z,15.64
2019-04-30T10:44:43.551Z,15.61
2019-04-30T10:47:13.475Z,15.53
2019-04-30T10:49:43.401Z,15.61
2019-04-30T10:52:13.267Z,15.83
2019-04-30T10:54:43.104Z,16.13
2019-04-30T10:57:12.828Z,16.34
2019-04-30T10:59:45.291Z,16.27
2019-04-30T11:02:15.177Z,15.81
2019-04-30T11:04:44.880Z,15.79
2019-04-30T11:07:14.956Z,15.78
2019-04-30T11:09:45.051Z,15.59
2019-04-30T11:12:14.900Z,15.59
2019-04-30T11:14:44.588Z,15.63
2019-04-30T11:17:14.846Z,15.79
2019-04-30T11:19:44.824Z,16.00
2019-04-30T11:22:14.994Z,16.21
2019-04-30T11:24:56.700Z,16.02
2019-04-30T11:27:16.955Z,16.37
2019-04-30T11:29:49.353Z,16.21
2019-04-30T11:32:20.620Z,16.05
2019-04-30T11:34:50.859Z,16.24
2019-04-30T11:37:21.130Z,16.46
2019-04-30T11:39:51.042Z,16.71
2019-04-30T11:42:20.846Z,16.75
2019-04-30T11:44:50.716Z,16.73
2019-04-30T11:47:24.006Z,16.56
2019-04-30T11:49:53.886Z,16.58
2019-04-30T11:52:24.069Z,16.68
2019-04-30T11:54:54.690Z,16.78
2019-04-30T11:57:24.749Z,16.93
2019-04-30T11:59:54.846Z,16.99
2019-04-30T12:02:26.536Z,17.01
2019-04-30T12:04:56.293Z,17.06
2019-04-30T12:07:39.880Z,17.04
2019-04-30T12:10:22.337Z,16.96
2019-04-30T12:12:52.143Z,17.03
2019-04-30T12:15:22.154Z,17.11
2019-04-30T12:17:51.912Z,17.10
2019-04-30T12:20:22.960Z,17.08
2019-04-30T12:22:52.682Z,17.09
2019-04-30T12:25:22.476Z,17.23
2019-04-30T12:27:52.153Z,17.34
2019-04-30T12:30:23.047Z,17.52
2019-04-30T12:32:52.724Z,17.60
2019-04-30T12:35:22.566Z,17.48
2019-04-30T12:37:52.535Z,16.86
2019-04-30T12:40:28.765Z,16.73
2019-04-30T12:42:54.150Z,16.93
2019-04-30T12:45:23.939Z,17.18
2019-04-30T12:47:57.902Z,17.10
2019-04-30T12:50:32.110Z,17.41
2019-04-30T12:53:03.561Z,17.71
2019-04-30T12:55:44.847Z,17.95
2019-04-30T12:58:14.653Z,18.05
2019-04-30T13:00:44.552Z,18.15
2019-04-30T13:03:14.408Z,18.10
2019-04-30T13:05:44.475Z,17.80
2019-04-30T13:08:14.682Z,17.54
2019-04-30T13:10:45.701Z,17.59
2019-04-30T13:13:16.362Z,17.77
2019-04-30T13:15:46.675Z,18.24
2019-04-30T13:18:16.456Z,18.73
2019-04-30T13:20:46.341Z,18.47
2019-04-30T13:23:16.113Z,18.72
2019-04-30T13:25:51.165Z,18.91
2019-04-30T13:28:21.437Z,19.10
2019-04-30T13:30:51.248Z,18.95
2019-04-30T13:33:28.448Z,19.32
2019-04-30T13:35:58.834Z,18.86
2019-04-30T13:38:30.519Z,18.71
2019-04-30T13:41:01.840Z,18.48
2019-04-30T13:43:49.651Z,19.06
2019-04-30T13:46:19.775Z,19.47
2019-04-30T13:48:49.740Z,18.82
2019-04-30T13:51:19.423Z,18.88
2019-04-30T13:53:49.269Z,18.66
2019-04-30T13:56:20.292Z,18.36
2019-04-30T13:58:50.465Z,18.33
2019-04-30T14:01:21.411Z,18.81
2019-04-30T14:03:53.909Z,19.03
2019-04-30T14:06:31.029Z,19.69
2019-04-30T14:09:02.565Z,19.24
2019-04-30T14:11:32.397Z,19.45
2019-04-30T14:14:02.291Z,18.50
2019-04-30T14:16:32.132Z,19.09
2019-04-30T14:19:01.868Z,19.69
2019-04-30T14:21:35.363Z,18.63
2019-04-30T14:24:03.283Z,18.81
2019-04-30T14:26:33.118Z,19.43
2019-04-30T14:29:02.797Z,20.05
2019-04-30T14:31:32.590Z,19.44
2019-04-30T14:34:02.326Z,19.23
2019-04-30T14:36:32.209Z,19.59
2019-04-30T14:39:13.690Z,18.71
2019-04-30T14:41:34.028Z,18.45
2019-04-30T14:44:09.571Z,18.08
2019-04-30T14:46:42.054Z,18.36
2019-04-30T14:49:30.946Z,19.00
2019-04-30T14:52:01.265Z,18.47
2019-04-30T14:54:35.522Z,19.01
2019-04-30T14:57:07.237Z,18.74
2019-04-30T14:59:54.705Z,18.48
2019-04-30T15:02:32.752Z,19.03
2019-04-30T15:05:02.468Z,19.02
2019-04-30T15:07:32.297Z,19.82
2019-04-30T15:10:02.026Z,19.31
2019-04-30T15:12:31.754Z,19.42
2019-04-30T15:15:01.618Z,18.73
2019-04-30T15:17:31.384Z,17.95
2019-04-30T15:20:01.756Z,17.47
2019-04-30T15:22:32.643Z,17.06
2019-04-30T15:25:02.472Z,16.80
2019-04-30T15:27:32.228Z,16.62
2019-04-30T15:30:02.077Z,16.74
2019-04-30T15:32:32.134Z,16.69
2019-04-30T15:35:02.033Z,16.81
2019-04-30T15:37:32.098Z,16.80
2019-04-30T15:40:01.874Z,17.02
2019-04-30T15:42:31.657Z,17.12
2019-04-30T15:45:01.417Z,17.09
2019-04-30T15:47:31.059Z,16.97
2019-04-30T15:50:02.194Z,17.03
2019-04-30T15:52:31.998Z,16.76
2019-04-30T15:55:01.640Z,16.82
2019-04-30T15:57:31.316Z,16.58
2019-04-30T16:00:01.063Z,16.56
2019-04-30T16:02:32.629Z,16.50
2019-04-30T16:05:12.989Z,16.40
2019-04-30T16:07:49.153Z,16.51
2019-04-30T16:10:26.007Z,16.50
2019-04-30T16:13:09.759Z,16.29
2019-04-30T16:15:39.605Z,16.20
2019-04-30T16:18:10.251Z,16.19
2019-04-30T16:20:40.055Z,16.06
2019-04-30T16:23:10.001Z,16.04
2019-04-30T16:25:39.727Z,16.08
2019-04-30T16:28:10.146Z,16.03
2019-04-30T16:30:42.697Z,16.06
2019-04-30T16:33:11.829Z,16.14
2019-04-30T16:35:41.510Z,16.12
2019-04-30T16:38:11.276Z,16.12
2019-04-30T16:40:40.991Z,16.12
2019-04-30T16:43:10.651Z,16.15
2019-04-30T16:45:40.474Z,16.01
2019-04-30T16:48:12.008Z,15.92
2019-04-30T16:50:41.591Z,15.99
2019-04-30T16:53:11.312Z,16.15
2019-04-30T16:55:40.992Z,16.11
2019-04-30T16:58:10.635Z,16.26
2019-04-30T17:00:40.512Z,16.14
2019-04-30T17:03:12.342Z,16.17
2019-04-30T17:06:00.063Z,16.09
2019-04-30T17:08:39.088Z,15.95
2019-04-30T17:11:13.425Z,15.78
2019-04-30T17:13:54.123Z,15.72
2019-04-30T17:16:24.630Z,15.83
2019-04-30T17:18:54.372Z,15.75
2019-04-30T17:21:24.132Z,15.68
2019-04-30T17:23:53.900Z,15.73
2019-04-30T17:26:23.700Z,15.77
2019-04-30T17:28:53.547Z,15.73
2019-04-30T17:31:23.433Z,15.77
2019-04-30T17:33:53.295Z,15.77
2019-04-30T17:36:23.081Z,15.66
2019-04-30T17:38:52.872Z,15.64
2019-04-30T17:41:22.634Z,15.65
2019-04-30T17:43:52.395Z,15.55
2019-04-30T17:46:22.125Z,15.54
2019-04-30T17:48:51.949Z,15.62
2019-04-30T17:51:22.957Z,15.42
2019-04-30T17:54:12.269Z,15.36
2019-04-30T17:56:44.085Z,15.45
2019-04-30T17:59:14.741Z,15.37
2019-04-30T18:01:46.341Z,15.24
2019-04-30T18:04:18.689Z,15.28
2019-04-30T18:06:50.511Z,15.20
2019-04-30T18:09:20.311Z,15.13
2019-04-30T18:11:50.335Z,15.04
2019-04-30T18:14:20.351Z,15.01
2019-04-30T18:16:50.721Z,14.97
2019-04-30T18:19:29.568Z,15.00
2019-04-30T18:22:09.523Z,14.96
2019-04-30T18:24:49.817Z,14.87
2019-04-30T18:27:21.415Z,14.85
2019-04-30T18:29:51.269Z,14.84
2019-04-30T18:32:22.677Z,14.85
2019-04-30T18:34:52.504Z,14.69
2019-04-30T18:37:22.618Z,14.79
2019-04-30T18:39:52.611Z,14.75
2019-04-30T18:42:22.533Z,14.69
2019-04-30T18:44:52.245Z,14.66
2019-04-30T18:47:22.101Z,14.63
2019-04-30T18:49:51.729Z,14.62
2019-04-30T18:52:21.490Z,14.60
2019-04-30T18:54:51.175Z,14.52
2019-04-30T18:57:20.904Z,14.48
2019-04-30T18:59:50.719Z,14.47
2019-04-30T19:02:20.709Z,14.47
2019-04-30T19:04:50.410Z,14.40
2019-04-30T19:07:21.850Z,14.48
2019-04-30T19:10:02.349Z,14.40
2019-04-30T19:12:34.634Z,14.36
2019-04-30T19:15:36.721Z,14.32
2019-04-30T19:17:56.250Z,14.26
2019-04-30T19:20:28.660Z,14.19
2019-04-30T19:22:58.959Z,14.26
2019-04-30T19:25:28.950Z,14.15
2019-04-30T19:28:09.581Z,14.11
2019-04-30T19:30:32.517Z,14.19
2019-04-30T19:33:01.871Z,14.19
2019-04-30T19:35:31.743Z,14.13
2019-04-30T19:38:01.496Z,14.09
2019-04-30T19:40:31.246Z,14.04
2019-04-30T19:43:00.902Z,14.03
2019-04-30T19:45:30.722Z,13.92
2019-04-30T19:48:00.929Z,13.91
2019-04-30T19:50:30.614Z,13.91
2019-04-30T19:53:00.411Z,13.73
2019-04-30T19:55:30.211Z,13.65
2019-04-30T19:57:59.972Z,13.79
2019-04-30T20:00:31.024Z,13.66
2019-04-30T20:03:00.870Z,13.72
2019-04-30T20:05:30.566Z,13.57
2019-04-30T20:08:00.417Z,13.46
2019-04-30T20:10:30.120Z,13.65
2019-04-30T20:12:59.983Z,13.58
2019-04-30T20:15:29.924Z,13.59
2019-04-30T20:18:01.042Z,13.53
2019-04-30T20:20:31.013Z,13.55
2019-04-30T20:23:00.732Z,13.41
2019-04-30T20:25:30.377Z,13.33
2019-04-30T20:28:00.071Z,13.30
2019-04-30T20:30:29.895Z,13.29
2019-04-30T20:32:59.661Z,13.31
2019-04-30T20:35:29.404Z,13.25
2019-04-30T20:38:16.710Z,13.21
2019-04-30T20:40:59.628Z,13.14
2019-04-30T20:43:19.424Z,13.04
2019-04-30T20:45:49.138Z,12.99
2019-04-30T20:48:18.938Z,12.89
2019-04-30T20:50:48.871Z,12.85
2019-04-30T20:53:19.769Z,12.86
2019-04-30T20:55:49.662Z,12.85
2019-04-30T20:58:19.378Z,12.86
2019-04-30T21:01:00.654Z,12.77
2019-04-30T21:03:20.517Z,12.78
2019-04-30T21:05:50.223Z,12.91
2019-04-30T21:08:19.977Z,13.03
2019-04-30T21:10:49.615Z,12.94
2019-04-30T21:13:19.539Z,12.99
2019-04-30T21:15:49.696Z,12.87
2019-04-30T21:18:19.690Z,12.70
2019-04-30T21:20:49.784Z,12.83
2019-04-30T21:23:19.669Z,12.72
2019-04-30T21:25:49.628Z,12.68
2019-04-30T21:28:19.835Z,12.62
2019-04-30T21:30:49.814Z,12.55
2019-04-30T21:33:21.266Z,12.39
2019-04-30T21:36:01.723Z,12.40
2019-04-30T21:38:31.514Z,12.31
2019-04-30T21:41:01.329Z,12.27
2019-04-30T21:43:31.084Z,12.27
2019-04-30T21:46:00.880Z,12.20
2019-04-30T21:48:30.809Z,12.15
2019-04-30T21:51:00.490Z,12.19
2019-04-30T21:53:30.223Z,12.15
2019-04-30T21:55:59.972Z,12.05
2019-04-30T21:58:29.665Z,12.03
2019-04-30T22:01:06.285Z,11.96
2019-04-30T22:03:36.246Z,11.99
2019-04-30T22:06:06.114Z,11.96
2019-04-30T22:08:35.809Z,12.04
2019-04-30T22:11:05.564Z,11.96
2019-04-30T22:13:35.389Z,11.93
2019-04-30T22:16:05.221Z,11.91
2019-04-30T22:18:35.142Z,11.82
2019-04-30T22:21:05.090Z,11.82
2019-04-30T22:23:34.840Z,11.85
2019-04-30T22:26:04.630Z,11.79
2019-04-30T22:28:34.459Z,11.76
2019-04-30T22:31:04.248Z,11.68
2019-04-30T22:33:34.151Z,11.61
2019-04-30T22:36:15.194Z,11.49
2019-04-30T22:38:48.797Z,11.53
2019-04-30T22:41:20.619Z,11.51
2019-04-30T22:43:50.404Z,11.41
2019-04-30T22:46:20.207Z,11.44
2019-04-30T22:48:49.841Z,11.39
2019-04-30T22:51:19.652Z,11.34
2019-04-30T22:53:49.343Z,11.38
2019-04-30T22:56:19.089Z,11.40
2019-04-30T22:58:48.861Z,11.29
2019-04-30T23:01:27.291Z,11.34
2019-04-30T23:04:04.827Z,11.25
2019-04-30T23:06:34.543Z,11.28
2019-04-30T23:09:05.801Z,11.31
2019-04-30T23:11:35.573Z,11.28
2019-04-30T23:14:05.585Z,11.38
2019-04-30T23:16:35.543Z,11.34
2019-04-30T23:19:05.376Z,11.21
2019-04-30T23:21:35.202Z,11.15
2019-04-30T23:24:05.016Z,11.11
2019-04-30T23:26:34.982Z,11.03
2019-04-30T23:29:04.932Z,11.04
2019-04-30T23:31:34.719Z,10.98
2019-04-30T23:34:17.205Z,10.97
2019-04-30T23:36:35.829Z,10.91
2019-04-30T23:39:07.071Z,10.86
2019-04-30T23:41:36.803Z,10.77
2019-04-30T23:44:06.568Z,10.83
2019-04-30T23:46:36.341Z,10.77
2019-04-30T23:49:06.122Z,10.73
2019-04-30T23:51:35.885Z,10.72
2019-04-30T23:54:05.706Z,10.64
2019-04-30T23:56:35.471Z,10.60
2019-04-30T23:59:05.495Z,10.62
